Time;durP1;ratioP1;P1;durP2;ratioP2;P2;SDS_P1;SDS_P2;PMS_P1;PMS_P2;Temp;Humidity;BMP_temperature;BMP_pressure;BME280_temperature;BME280_humidity;BME280_pressure;Samples;Min_cycle;Max_cycle;Signal;HPM_P1;HPM_P2
2022/04/10 00:01:16;;;;;;;16.63;6.57;;;;;;;13.43;52.95;93609.25;5071102;28;20624;-78
2022/04/10 00:03:43;;;;;;;17.47;7.30;;;;;;;13.38;53.43;93609.25;5072630;28;20193;-82
2022/04/10 00:06:10;;;;;;;14.27;7.83;;;;;;;13.28;53.84;93615.25;5072389;28;20280;-80
2022/04/10 00:08:38;;;;;;;16.80;8.37;;;;;;;13.13;53.98;93615.22;5073273;28;20213;-82
2022/04/10 00:11:05;;;;;;;16.00;8.27;;;;;;;13.11;53.98;93611.31;5072127;28;20213;-80
2022/04/10 00:13:32;;;;;;;17.07;8.33;;;;;;;13.17;54.09;93611.06;5071518;28;20201;-80
2022/04/10 00:15:58;;;;;;;20.83;8.30;;;;;;;13.14;54.10;93597.75;5071898;28;20229;-80
2022/04/10 00:18:25;;;;;;;13.57;7.10;;;;;;;13.04;53.84;93601.88;5071337;28;20216;-78
2022/04/10 00:20:52;;;;;;;17.33;7.87;;;;;;;13.00;53.67;93608.66;5069730;28;20702;-80
2022/04/10 00:23:19;;;;;;;14.90;6.60;;;;;;;12.98;53.83;93605.53;5070356;28;20197;-78
2022/04/10 00:25:47;;;;;;;16.23;6.43;;;;;;;12.93;53.78;93609.94;5071161;28;20201;-79
2022/04/10 00:28:14;;;;;;;16.67;7.03;;;;;;;12.93;53.98;93609.94;5070874;28;20699;-79
2022/04/10 00:30:40;;;;;;;13.23;6.30;;;;;;;12.86;54.00;93601.59;5070760;28;20727;-78
2022/04/10 00:33:07;;;;;;;12.93;6.30;;;;;;;12.84;53.71;93606.28;5069386;28;20236;-78
2022/04/10 00:35:34;;;;;;;16.30;7.00;;;;;;;12.83;53.68;93605.50;5070883;28;20707;-79
2022/04/10 00:38:01;;;;;;;13.73;6.60;;;;;;;12.80;53.96;93611.22;5070371;28;20206;-78
2022/04/10 00:40:28;;;;;;;13.90;6.57;;;;;;;12.79;53.87;93611.47;5068729;28;20202;-80
2022/04/10 00:42:56;;;;;;;12.40;6.43;;;;;;;12.75;54.23;93602.59;5070024;28;20212;-80
2022/04/10 00:45:23;;;;;;;13.47;6.80;;;;;;;12.72;54.12;93609.13;5069654;28;20193;-79
2022/04/10 00:47:50;;;;;;;13.17;6.57;;;;;;;12.67;53.78;93618.75;5069702;28;20200;-79
2022/04/10 00:50:19;;;;;;;15.33;6.57;;;;;;;12.52;53.61;93604.59;5070395;28;20958;-78
2022/04/10 00:52:47;;;;;;;17.30;7.23;;;;;;;12.58;53.49;93583.78;5068091;28;20193;-78
2022/04/10 00:55:15;;;;;;;16.03;6.70;;;;;;;12.64;54.13;93582.78;5070925;28;20192;-78
2022/04/10 00:57:42;;;;;;;15.93;7.37;;;;;;;12.62;54.02;93574.41;5069929;28;20210;-78
2022/04/10 01:00:12;;;;;;;16.50;6.60;;;;;;;12.41;54.77;93583.97;5070133;28;20202;-80
2022/04/10 01:02:39;;;;;;;14.43;6.83;;;;;;;12.25;55.10;93551.88;5071384;28;20688;-80
2022/04/10 01:05:07;;;;;;;17.43;6.90;;;;;;;12.26;55.13;93545.66;5069746;28;20214;-80
2022/04/10 01:07:34;;;;;;;12.27;6.17;;;;;;;12.27;54.90;93555.00;5069784;28;21004;-79
2022/04/10 01:10:01;;;;;;;11.47;6.37;;;;;;;12.09;55.20;93558.06;5070463;28;20579;-79
2022/04/10 01:12:29;;;;;;;16.07;6.73;;;;;;;11.94;56.16;93550.19;5068180;28;20225;-80
2022/04/10 01:14:56;;;;;;;17.00;7.13;;;;;;;11.97;56.50;93536.66;5069658;28;20229;-79
2022/04/10 01:17:25;;;;;;;16.77;6.60;;;;;;;12.02;56.31;93541.09;5069797;28;20197;-78
2022/04/10 01:19:54;;;;;;;17.23;7.40;;;;;;;11.92;56.92;93552.25;5069929;28;20197;-78
2022/04/10 01:22:44;;;;;;;13.43;7.63;;;;;;;11.99;56.46;93544.22;5070818;28;20262;-81
2022/04/10 01:25:11;;;;;;;12.73;7.63;;;;;;;12.04;55.96;93549.44;5067416;28;20205;-80
2022/04/10 01:27:40;;;;;;;16.77;7.30;;;;;;;12.09;56.08;93552.09;5070376;28;20209;-80
2022/04/10 01:30:09;;;;;;;18.23;7.47;;;;;;;12.10;56.43;93553.63;5069982;28;20208;-80
2022/04/10 01:32:35;;;;;;;17.30;7.90;;;;;;;12.07;56.09;93554.13;5069860;28;20229;-79
2022/04/10 01:35:04;;;;;;;16.03;8.60;;;;;;;12.11;56.44;93557.81;5070309;28;20193;-80
2022/04/10 01:37:33;;;;;;;22.13;8.80;;;;;;;12.12;55.98;93556.78;5071151;28;20205;-82
2022/04/10 01:40:01;;;;;;;21.00;9.17;;;;;;;12.14;56.11;93555.50;5071646;28;20201;-82
2022/04/10 01:42:28;;;;;;;15.27;7.23;;;;;;;12.14;55.77;93560.69;5069920;28;20935;-83
2022/04/10 01:44:55;;;;;;;15.10;6.30;;;;;;;12.06;55.25;93563.78;5070533;28;20201;-81
2022/04/10 01:47:22;;;;;;;15.27;5.63;;;;;;;11.97;55.14;93575.72;5069208;28;20197;-77
2022/04/10 01:49:49;;;;;;;11.80;5.67;;;;;;;11.80;56.04;93560.25;5069556;28;20232;-78
2022/04/10 01:52:16;;;;;;;11.87;5.07;;;;;;;11.71;56.46;93555.78;5068262;28;20225;-78
2022/04/10 01:54:42;;;;;;;9.70;5.07;;;;;;;11.71;56.41;93553.19;5068799;28;20204;-78
2022/04/10 01:57:11;;;;;;;13.80;4.87;;;;;;;11.79;56.11;93558.69;5068236;28;20214;-78
2022/04/10 01:59:37;;;;;;;10.67;5.17;;;;;;;11.84;56.41;93557.94;5068998;28;20297;-77
2022/04/10 02:02:05;;;;;;;8.37;4.70;;;;;;;11.71;56.59;93547.97;5068543;28;20193;-78
2022/04/10 02:04:32;;;;;;;9.97;5.50;;;;;;;11.67;57.10;93545.06;5068199;28;20208;-76
2022/04/10 02:06:58;;;;;;;12.27;5.30;;;;;;;11.66;57.00;93534.91;5068093;28;20194;-78
2022/04/10 02:09:25;;;;;;;13.90;5.93;;;;;;;11.71;57.12;93540.97;5068148;28;20190;-76
2022/04/10 02:11:52;;;;;;;16.33;5.80;;;;;;;11.68;57.28;93540.66;5067050;28;20221;-78
2022/04/10 02:14:21;;;;;;;7.87;5.07;;;;;;;11.49;58.57;93531.66;5067675;28;20280;-77
2022/04/10 02:16:48;;;;;;;10.73;5.23;;;;;;;11.45;58.08;93525.41;5068511;28;20198;-77
2022/04/10 02:19:14;;;;;;;12.47;5.23;;;;;;;11.54;59.13;93534.31;5067564;28;20205;-77
2022/04/10 02:21:41;;;;;;;12.40;6.10;;;;;;;11.62;58.90;93547.66;5068011;28;20208;-78
2022/04/10 02:24:08;;;;;;;16.13;6.00;;;;;;;11.53;59.06;93558.75;5067159;28;20213;-77
2022/04/10 02:26:35;;;;;;;12.07;5.10;;;;;;;11.35;59.34;93552.13;5068144;28;20288;-77
2022/04/10 02:29:03;;;;;;;12.83;5.00;;;;;;;11.31;59.25;93558.88;5067526;28;20243;-78
2022/04/10 02:31:31;;;;;;;16.10;5.20;;;;;;;11.43;59.99;93553.50;5067900;28;20737;-78
2022/04/10 02:33:58;;;;;;;13.27;5.40;;;;;;;11.48;60.16;93551.72;5067697;28;20248;-78
2022/04/10 02:36:25;;;;;;;10.57;5.47;;;;;;;11.58;59.98;93546.56;5067309;28;20196;-77
2022/04/10 02:38:51;;;;;;;11.83;4.97;;;;;;;11.52;59.69;93529.34;5067900;28;20197;-78
2022/04/10 02:41:18;;;;;;;10.10;5.37;;;;;;;11.67;59.35;93545.06;5068389;28;20209;-79
2022/04/10 02:43:45;;;;;;;11.13;5.00;;;;;;;11.74;59.35;93537.88;5068350;28;20197;-79
2022/04/10 02:46:12;;;;;;;11.17;4.83;;;;;;;11.78;58.57;93535.50;5067796;28;20209;-78
2022/04/10 02:48:40;;;;;;;7.37;4.80;;;;;;;11.87;59.12;93547.03;5066971;28;20727;-79
2022/04/10 02:51:07;;;;;;;10.67;5.30;;;;;;;11.65;59.41;93554.94;5067296;28;20213;-78
2022/04/10 02:53:33;;;;;;;14.07;5.23;;;;;;;11.66;59.30;93548.69;5067494;28;20216;-79
2022/04/10 02:56:00;;;;;;;8.97;4.57;;;;;;;11.74;59.61;93563.09;5067637;28;20201;-78
2022/04/10 02:58:27;;;;;;;11.77;4.93;;;;;;;11.69;59.84;93568.22;5065659;28;20197;-79
2022/04/10 03:00:54;;;;;;;12.67;5.30;;;;;;;11.55;61.14;93551.47;5068047;28;20197;-79
2022/04/10 03:03:21;;;;;;;10.07;5.33;;;;;;;11.70;63.41;93567.22;5067290;28;20200;-79
2022/04/10 03:05:49;;;;;;;12.40;5.40;;;;;;;11.78;63.03;93567.53;5065145;28;20201;-80
2022/04/10 03:08:17;;;;;;;18.83;5.57;;;;;;;11.89;62.55;93578.78;5067605;28;20201;-78
2022/04/10 03:10:44;;;;;;;16.03;5.10;;;;;;;11.90;62.81;93562.13;5067378;28;20201;-79
2022/04/10 03:13:11;;;;;;;15.47;5.77;;;;;;;11.97;63.49;93556.72;5066999;28;20236;-78
2022/04/10 03:15:38;;;;;;;10.43;4.93;;;;;;;11.99;64.78;93555.41;5067303;28;20237;-78
2022/04/10 03:18:05;;;;;;;12.23;5.03;;;;;;;12.01;64.58;93545.53;5066565;28;20648;-79
2022/04/10 03:20:32;;;;;;;11.80;5.10;;;;;;;12.06;63.78;93550.78;5067626;28;20200;-79
2022/04/10 03:23:00;;;;;;;11.93;4.97;;;;;;;12.02;63.99;93585.38;5066640;28;20198;-79
2022/04/10 03:25:27;;;;;;;11.57;5.57;;;;;;;11.92;65.19;93588.69;5067739;28;20204;-78
2022/04/10 03:27:54;;;;;;;13.80;6.50;;;;;;;11.85;66.99;93586.34;5067274;28;20201;-77
2022/04/10 03:30:21;;;;;;;11.83;6.47;;;;;;;11.67;67.04;93601.53;5067209;28;20201;-79
2022/04/10 03:32:47;;;;;;;15.67;6.43;;;;;;;11.56;68.28;93582.47;5064240;28;20229;-77
2022/04/10 03:35:14;;;;;;;11.57;6.03;;;;;;;11.52;69.76;93576.19;5066759;28;20716;-78
2022/04/10 03:37:43;;;;;;;9.67;4.90;;;;;;;11.62;70.91;93584.06;5066839;28;20286;-77
2022/04/10 03:40:13;;;;;;;8.83;5.03;;;;;;;11.49;71.62;93579.28;5066419;28;20205;-77
2022/04/10 03:42:40;;;;;;;8.43;5.03;;;;;;;11.45;73.15;93567.81;5066889;28;20683;-77
2022/04/10 03:45:09;;;;;;;11.53;5.63;;;;;;;11.58;74.85;93567.38;5066838;28;20205;-76
2022/04/10 03:47:36;;;;;;;8.97;6.00;;;;;;;11.63;74.52;93567.41;5063652;28;20771;-77
2022/04/10 03:50:03;;;;;;;10.67;6.10;;;;;;;11.61;76.41;93577.28;5064961;28;20590;-77
2022/04/10 03:52:30;;;;;;;11.43;6.73;;;;;;;11.54;75.04;93588.97;5064384;28;20221;-78
2022/04/10 03:54:57;;;;;;;13.97;6.80;;;;;;;11.28;76.66;93591.34;5066657;28;20197;-78
2022/04/10 03:57:25;;;;;;;15.13;7.10;;;;;;;11.22;77.65;93600.16;5066625;28;20667;-78
2022/04/10 03:59:52;;;;;;;12.47;6.90;;;;;;;11.18;79.19;93599.06;5066670;28;20205;-78
2022/04/10 04:02:19;;;;;;;10.70;7.00;;;;;;;11.17;79.32;93597.50;5066245;28;20196;-78
2022/04/10 04:04:46;;;;;;;10.03;6.70;;;;;;;11.20;79.00;93601.41;5067585;28;20554;-79
2022/04/10 04:07:13;;;;;;;12.73;7.70;;;;;;;11.25;79.46;93607.47;5066942;28;20664;-78
2022/04/10 04:09:40;;;;;;;14.27;8.93;;;;;;;10.97;82.29;93610.31;5067859;28;20217;-80
2022/04/10 04:12:08;;;;;;;12.80;9.07;;;;;;;10.89;83.51;93618.56;5067329;28;20224;-79
2022/04/10 04:14:36;;;;;;;17.03;9.60;;;;;;;10.85;86.83;93614.13;5067295;28;20294;-80
2022/04/10 04:17:03;;;;;;;18.00;11.03;;;;;;;10.68;88.58;93621.97;5067255;28;20194;-80
2022/04/10 04:19:30;;;;;;;15.83;12.17;;;;;;;10.49;89.33;93623.31;5067481;28;20209;-79
2022/04/10 04:21:57;;;;;;;20.33;12.60;;;;;;;10.39;90.83;93639.56;5066946;28;20189;-81
2022/04/10 04:24:24;;;;;;;20.83;13.50;;;;;;;10.10;92.41;93649.28;5067604;28;20198;-79
2022/04/10 04:26:50;;;;;;;21.80;14.27;;;;;;;9.72;94.70;93628.53;5067550;28;20263;-79
2022/04/10 04:29:17;;;;;;;20.27;15.30;;;;;;;9.67;96.83;93649.97;5065962;28;20660;-79
2022/04/10 04:31:45;;;;;;;20.80;15.43;;;;;;;9.44;98.06;93654.53;5066460;28;20224;-78
2022/04/10 04:34:13;;;;;;;23.27;16.07;;;;;;;9.06;100.00;93657.81;5067563;28;20206;-80
2022/04/10 04:36:40;;;;;;;26.17;17.40;;;;;;;8.95;100.00;93666.41;5067620;28;20206;-79
2022/04/10 04:39:07;;;;;;;26.80;17.63;;;;;;;8.73;100.00;93679.22;5068540;28;20202;-80
2022/04/10 04:41:34;;;;;;;23.60;16.73;;;;;;;8.53;100.00;93677.03;5067968;28;20279;-80
2022/04/10 04:44:00;;;;;;;26.57;17.70;;;;;;;8.61;100.00;93682.84;5070142;28;20198;-79
2022/04/10 04:46:27;;;;;;;26.47;17.60;;;;;;;8.38;100.00;93687.06;5072209;28;20266;-80
2022/04/10 04:48:55;;;;;;;27.47;17.97;;;;;;;8.28;100.00;93680.91;5071455;28;20279;-80
2022/04/10 04:51:22;;;;;;;27.07;17.80;;;;;;;8.25;100.00;93692.47;5071422;28;20209;-80
2022/04/10 04:53:49;;;;;;;29.40;18.90;;;;;;;8.24;100.00;93695.28;5071494;28;20236;-79
2022/04/10 04:56:16;;;;;;;30.07;18.00;;;;;;;8.10;100.00;93681.81;5070308;28;20205;-80
2022/04/10 04:58:44;;;;;;;32.07;18.27;;;;;;;8.02;100.00;93715.00;5070092;28;20216;-79
2022/04/10 05:01:11;;;;;;;27.13;17.33;;;;;;;8.00;100.00;93692.72;5068992;28;20201;-78
2022/04/10 05:03:39;;;;;;;28.30;17.97;;;;;;;7.93;100.00;93719.72;5070299;28;20201;-79
2022/04/10 05:06:07;;;;;;;32.40;19.53;;;;;;;7.72;100.00;93713.28;5070061;28;20205;-79
2022/04/10 05:08:34;;;;;;;28.83;17.57;;;;;;;7.65;100.00;93717.75;5070633;28;20224;-78
2022/04/10 05:11:01;;;;;;;32.50;18.40;;;;;;;7.58;100.00;93704.16;5068820;28;20198;-79
2022/04/10 05:13:28;;;;;;;35.53;18.83;;;;;;;7.42;100.00;93712.53;5068979;28;20312;-78
2022/04/10 05:15:56;;;;;;;37.30;19.83;;;;;;;7.40;100.00;93719.75;5069105;28;20256;-77
2022/04/10 05:18:23;;;;;;;32.10;18.37;;;;;;;7.43;100.00;93716.72;5069324;28;20231;-79
2022/04/10 05:20:50;;;;;;;29.80;18.40;;;;;;;7.17;100.00;93712.72;5069847;28;20208;-78
2022/04/10 13:39:05;;;;;;;14.97;8.43;;;;;;;3.33;100.00;93904.06;4968530;28;20221;-79
2022/04/10 13:41:32;;;;;;;17.63;10.03;;;;;;;3.27;100.00;93908.19;4969178;28;20287;-79
2022/04/10 13:44:01;;;;;;;11.60;7.50;;;;;;;3.27;100.00;93917.66;4975256;28;20193;-79
2022/04/10 13:46:28;;;;;;;14.77;9.10;;;;;;;3.38;100.00;93912.78;4971281;28;20248;-77
2022/04/10 13:48:54;;;;;;;20.07;10.43;;;;;;;3.41;100.00;93916.72;4959384;28;20215;-77
2022/04/10 13:51:22;;;;;;;24.63;13.80;;;;;;;3.48;100.00;93922.69;4972220;28;20582;-79
2022/04/10 13:53:49;;;;;;;16.50;9.90;;;;;;;3.52;100.00;93925.66;4971383;28;20739;-79
2022/04/10 13:56:17;;;;;;;21.10;9.93;;;;;;;3.35;100.00;93920.06;4968280;28;20203;-79
2022/04/10 13:58:44;;;;;;;19.13;10.20;;;;;;;3.41;100.00;93924.44;4974519;28;20228;-78
2022/04/10 14:01:12;;;;;;;21.83;12.03;;;;;;;3.31;100.00;93924.81;4968927;28;20216;-78
2022/04/10 14:03:38;;;;;;;25.47;14.83;;;;;;;3.21;100.00;93921.00;4967381;28;20602;-79
2022/04/10 14:06:05;;;;;;;16.60;10.60;;;;;;;3.11;100.00;93918.00;4969595;28;20215;-78
2022/04/10 14:08:33;;;;;;;25.47;14.40;;;;;;;3.09;100.00;93925.09;4970439;28;20204;-78
2022/04/10 14:11:01;;;;;;;26.13;13.33;;;;;;;3.10;100.00;93917.19;4972940;28;20196;-80
2022/04/10 14:13:29;;;;;;;22.13;11.63;;;;;;;3.01;100.00;93922.69;4969967;28;20667;-80
2022/04/10 14:15:56;;;;;;;29.47;15.80;;;;;;;2.99;100.00;93920.31;4970964;28;20628;-83
2022/04/10 14:18:23;;;;;;;28.53;15.20;;;;;;;3.06;100.00;93921.13;4975022;28;20236;-79
2022/04/10 14:20:50;;;;;;;28.27;15.53;;;;;;;3.08;100.00;93921.75;4972460;28;20204;-80
2022/04/10 14:23:17;;;;;;;34.57;19.20;;;;;;;2.96;100.00;93928.38;4976690;28;20197;-79
2022/04/10 14:25:44;;;;;;;33.10;18.37;;;;;;;2.90;100.00;93915.50;4970236;28;20588;-79
2022/04/10 14:28:11;;;;;;;34.30;18.30;;;;;;;2.95;100.00;93908.03;4972272;28;20204;-79
2022/04/10 14:30:40;;;;;;;37.33;20.83;;;;;;;3.01;100.00;93910.63;4966383;28;20201;-80
2022/04/10 14:33:07;;;;;;;34.97;18.33;;;;;;;3.03;100.00;93905.34;4964237;28;20595;-79
2022/04/10 14:35:34;;;;;;;25.60;15.37;;;;;;;3.05;100.00;93896.47;4973584;28;20212;-78
2022/04/10 14:38:01;;;;;;;31.67;19.23;;;;;;;3.06;100.00;93912.66;4969426;28;20235;-74
2022/04/10 14:40:28;;;;;;;33.47;20.30;;;;;;;3.05;100.00;93911.84;4985896;28;20203;-73
2022/04/10 14:42:54;;;;;;;33.90;18.67;;;;;;;3.06;100.00;93921.13;4987056;28;20200;-71
2022/04/10 14:45:21;;;;;;;36.23;21.27;;;;;;;3.05;100.00;93918.75;4989226;28;20554;-74
2022/04/10 14:47:50;;;;;;;26.60;16.33;;;;;;;3.10;100.00;93909.50;4987606;28;20216;-72
2022/04/10 14:50:17;;;;;;;32.07;18.17;;;;;;;3.12;100.00;93917.00;4985990;28;20688;-73
2022/04/10 14:52:44;;;;;;;30.93;16.53;;;;;;;3.09;100.00;93914.84;4987154;28;20278;-75
2022/04/10 14:55:10;;;;;;;34.70;18.57;;;;;;;3.09;100.00;93923.31;4988699;28;20218;-76
2022/04/10 14:57:39;;;;;;;31.17;19.63;;;;;;;3.06;100.00;93926.25;4987034;28;20632;-77
2022/04/10 15:00:08;;;;;;;27.27;17.27;;;;;;;3.04;100.00;93933.34;4988298;28;20714;-77
2022/04/10 15:02:49;;;;;;;28.63;17.33;;;;;;;3.12;100.00;93937.53;4992970;28;20211;-77
2022/04/10 15:05:18;;;;;;;22.63;14.57;;;;;;;3.07;100.00;93934.75;4990959;28;20281;-80
2022/04/10 15:08:10;;;;;;;28.23;16.87;;;;;;;3.21;100.00;93938.97;4989077;28;20290;-77
2022/04/10 15:10:41;;;;;;;26.73;15.30;;;;;;;3.17;100.00;93932.63;4991865;28;20220;-76
2022/04/10 15:13:08;;;;;;;28.20;15.13;;;;;;;3.25;100.00;93940.19;4988616;28;20228;-75
2022/04/10 15:15:41;;;;;;;35.23;17.00;;;;;;;3.33;100.00;93940.00;4988288;28;20651;-77
2022/04/10 15:18:08;;;;;;;24.80;12.70;;;;;;;3.43;100.00;93943.03;4984472;28;20984;-75
2022/04/10 15:20:36;;;;;;;25.27;13.20;;;;;;;3.51;100.00;93936.91;4984022;28;20243;-72
2022/04/10 15:23:04;;;;;;;33.27;15.90;;;;;;;3.52;100.00;93939.28;4985677;28;20283;-77
2022/04/10 15:25:30;;;;;;;28.47;14.63;;;;;;;3.57;100.00;93954.13;4987594;28;20193;-80
2022/04/10 15:27:58;;;;;;;28.57;17.00;;;;;;;3.65;100.00;93951.38;4989664;28;20271;-83
2022/04/10 15:30:25;;;;;;;30.63;15.23;;;;;;;3.62;100.00;93947.44;4986390;28;20594;-81
2022/04/10 15:32:53;;;;;;;26.53;14.73;;;;;;;3.62;100.00;93941.50;4991355;28;20583;-81
2022/04/10 15:35:23;;;;;;;32.03;17.60;;;;;;;3.69;100.00;93943.13;4986777;28;20200;-81
2022/04/10 15:37:52;;;;;;;31.70;17.73;;;;;;;3.67;100.00;93919.38;4985162;28;20231;-79
2022/04/10 15:40:19;;;;;;;44.50;23.60;;;;;;;3.60;100.00;93928.84;4986946;28;20184;-81
2022/04/10 15:42:46;;;;;;;34.87;18.57;;;;;;;3.63;100.00;93922.53;4983867;28;20287;-82
2022/04/10 15:45:13;;;;;;;37.20;20.67;;;;;;;3.80;100.00;93945.13;4980973;28;20188;-82
2022/04/10 15:47:41;;;;;;;35.17;19.13;;;;;;;3.77;100.00;93942.94;4984104;28;20208;-74
2022/04/10 15:50:09;;;;;;;31.00;17.43;;;;;;;3.76;100.00;93955.97;4986019;28;20223;-75
2022/04/10 15:52:40;;;;;;;29.70;15.87;;;;;;;3.71;100.00;93942.91;4985860;28;20227;-75
2022/04/10 15:55:10;;;;;;;35.13;19.70;;;;;;;3.79;100.00;93940.16;4986533;28;20291;-80
2022/04/10 15:57:37;;;;;;;32.67;16.47;;;;;;;3.92;100.00;93953.06;4986865;28;20278;-86
2022/04/10 16:00:07;;;;;;;31.37;15.80;;;;;;;3.90;100.00;93960.94;4985737;28;20296;-72
2022/04/10 16:02:36;;;;;;;24.70;14.00;;;;;;;3.93;100.00;93960.56;4985732;28;20204;-71
2022/04/10 16:05:04;;;;;;;30.13;16.73;;;;;;;3.86;100.00;93943.53;4986257;28;20199;-74
2022/04/10 16:07:31;;;;;;;26.37;15.97;;;;;;;3.89;100.00;93954.22;4985583;28;20204;-72
2022/04/10 16:09:58;;;;;;;27.03;14.73;;;;;;;3.85;100.00;93945.31;4984730;28;20196;-73
2022/04/10 16:12:27;;;;;;;20.27;11.50;;;;;;;3.76;100.00;93943.13;4984788;28;20203;-72
2022/04/10 16:14:54;;;;;;;24.83;14.33;;;;;;;3.76;100.00;93937.97;4986215;28;20243;-72
2022/04/10 16:17:21;;;;;;;26.33;15.43;;;;;;;3.82;100.00;93950.84;4986016;28;20196;-73
2022/04/10 16:19:48;;;;;;;28.20;15.30;;;;;;;3.82;100.00;93939.78;4983687;28;20674;-73
2022/04/10 16:22:15;;;;;;;26.63;14.23;;;;;;;3.82;100.00;93942.34;4984866;28;20196;-73
2022/04/10 16:24:42;;;;;;;26.00;14.67;;;;;;;3.71;100.00;93935.19;4986488;28;20210;-73
2022/04/10 16:30:10;;;;;;;30.13;18.43;;;;;;;3.51;100.00;93931.78;4984058;28;20215;-73
2022/04/10 16:32:39;;;;;;;24.20;15.43;;;;;;;3.45;100.00;93930.78;4983815;28;20596;-73
2022/04/10 16:35:07;;;;;;;26.50;16.50;;;;;;;3.55;100.00;93933.00;4985637;28;20259;-73
2022/04/10 16:37:34;;;;;;;32.03;17.60;;;;;;;3.54;100.00;93937.34;4984503;28;20246;-73
2022/04/10 16:40:01;;;;;;;29.37;18.07;;;;;;;3.52;100.00;93938.50;4988302;28;20211;-73
2022/04/10 16:42:28;;;;;;;27.73;17.00;;;;;;;3.64;100.00;93939.50;4986690;28;20199;-72
2022/04/10 16:44:57;;;;;;;29.93;18.70;;;;;;;3.64;100.00;93942.09;4988806;28;20211;-73
2022/04/10 16:47:24;;;;;;;32.23;19.57;;;;;;;3.58;100.00;93945.44;4988392;28;20204;-73
2022/04/10 16:49:51;;;;;;;28.23;17.90;;;;;;;3.70;100.00;93947.25;4989281;28;20196;-73
2022/04/10 16:52:18;;;;;;;31.27;19.07;;;;;;;3.80;100.00;93954.59;4989080;28;20689;-73
2022/04/10 16:54:50;;;;;;;36.97;20.30;;;;;;;3.82;100.00;93955.19;4987775;28;20207;-72
2022/04/10 16:57:18;;;;;;;32.80;19.00;;;;;;;3.91;100.00;93959.16;4983550;28;20230;-73
2022/04/10 16:59:46;;;;;;;36.27;21.80;;;;;;;3.99;100.00;93961.53;4984233;28;20258;-73
2022/04/10 17:02:14;;;;;;;36.57;21.17;;;;;;;3.90;100.00;93960.94;4982800;28;20287;-72
2022/04/10 17:04:41;;;;;;;33.37;21.10;;;;;;;3.84;100.00;93966.06;4982701;28;20739;-72
2022/04/10 17:07:09;;;;;;;28.83;18.83;;;;;;;3.74;100.00;93955.38;4982313;28;20934;-74
2022/04/10 17:09:36;;;;;;;28.50;17.97;;;;;;;3.80;100.00;93957.97;4984073;28;20532;-71
2022/04/10 17:12:03;;;;;;;31.47;20.23;;;;;;;3.96;100.00;93974.78;4984389;28;20211;-71
2022/04/10 17:14:30;;;;;;;31.03;18.13;;;;;;;3.91;100.00;93972.81;4982058;28;20227;-73
2022/04/10 17:16:57;;;;;;;28.87;18.50;;;;;;;3.95;100.00;93991.22;4983863;28;20192;-72
2022/04/10 17:19:26;;;;;;;32.70;20.77;;;;;;;4.01;100.00;93987.88;4981316;28;20244;-74
2022/04/10 17:21:53;;;;;;;35.70;22.70;;;;;;;3.98;100.00;93993.41;4985334;28;20270;-78
2022/04/10 17:24:20;;;;;;;36.10;23.13;;;;;;;4.13;100.00;93994.00;4982278;28;20207;-74
2022/04/10 17:26:48;;;;;;;38.67;25.07;;;;;;;4.00;100.00;93994.00;4983087;28;20197;-71
2022/04/10 17:29:14;;;;;;;29.90;19.47;;;;;;;3.95;100.00;93991.97;4984493;28;20238;-73
2022/04/10 17:31:42;;;;;;;33.33;22.20;;;;;;;3.92;100.00;93997.53;4983863;28;20216;-72
2022/04/10 17:34:08;;;;;;;37.27;21.87;;;;;;;4.03;100.00;94001.31;4981008;28;20679;-70
2022/04/10 17:36:37;;;;;;;27.07;17.57;;;;;;;4.03;100.00;94013.38;4985074;28;20207;-72
2022/04/10 17:39:04;;;;;;;28.33;18.60;;;;;;;4.13;100.00;94013.81;4985412;28;20239;-72
2022/04/10 17:41:30;;;;;;;23.47;16.03;;;;;;;4.02;100.00;93999.72;4985650;28;20207;-70
2022/04/10 17:43:57;;;;;;;27.13;17.67;;;;;;;3.99;100.00;94000.91;4986219;28;20193;-72
2022/04/10 17:46:24;;;;;;;31.30;19.33;;;;;;;3.86;100.00;93997.50;4985963;28;20225;-72
2022/04/10 17:48:51;;;;;;;28.40;19.23;;;;;;;3.82;100.00;94002.22;4986421;28;20209;-72
2022/04/10 17:51:18;;;;;;;27.43;18.60;;;;;;;3.79;100.00;93997.47;4987794;28;20206;-79
2022/04/10 17:53:47;;;;;;;25.90;17.60;;;;;;;3.89;100.00;93999.69;4988579;28;20220;-79
2022/04/10 17:56:14;;;;;;;26.93;17.40;;;;;;;3.90;100.00;94003.81;4989218;28;20201;-79
2022/04/10 17:58:42;;;;;;;23.87;16.37;;;;;;;3.93;100.00;94029.94;4989066;28;20299;-79
2022/04/10 18:01:09;;;;;;;23.13;15.57;;;;;;;3.92;100.00;94023.25;4989233;28;20205;-80
2022/04/10 18:03:36;;;;;;;28.23;18.23;;;;;;;3.86;100.00;94029.16;4987985;28;20429;-79
2022/04/10 18:06:03;;;;;;;30.03;18.63;;;;;;;3.96;100.00;94041.59;4988389;28;20227;-80
2022/04/10 18:08:31;;;;;;;27.57;18.43;;;;;;;3.90;100.00;94027.75;4987179;28;20200;-79
2022/04/10 18:11:00;;;;;;;31.10;21.47;;;;;;;3.71;100.00;94028.47;4987977;28;20567;-87
2022/04/10 18:13:27;;;;;;;34.00;21.27;;;;;;;3.74;100.00;94028.09;4988630;28;20205;-80
2022/04/10 18:15:55;;;;;;;27.53;18.33;;;;;;;3.97;100.00;94045.78;4988716;28;20207;-80
2022/04/10 18:18:22;;;;;;;27.03;18.07;;;;;;;3.98;100.00;94050.72;4987281;28;20193;-78
2022/04/10 18:20:50;;;;;;;27.90;17.50;;;;;;;3.99;100.00;94054.06;4991020;28;20575;-79
2022/04/10 18:23:17;;;;;;;28.07;18.47;;;;;;;3.99;100.00;94048.94;4989814;28;20696;-80
2022/04/10 18:25:45;;;;;;;26.60;17.63;;;;;;;3.85;100.00;94045.53;4991016;28;20231;-81
2022/04/10 18:28:15;;;;;;;25.60;17.57;;;;;;;3.93;100.00;94050.50;4992125;28;20220;-82
2022/04/10 18:30:43;;;;;;;26.03;17.97;;;;;;;3.97;100.00;94038.88;4990558;28;20206;-87
2022/04/10 18:33:11;;;;;;;28.97;17.00;;;;;;;3.75;100.00;94028.91;4990404;28;20193;-82
2022/04/10 18:35:38;;;;;;;28.73;19.53;;;;;;;3.61;100.00;94038.31;4989713;28;20228;-76
2022/04/10 18:38:05;;;;;;;28.47;18.43;;;;;;;3.76;100.00;94053.59;4988717;28;20613;-78
2022/04/10 18:40:33;;;;;;;27.77;18.87;;;;;;;3.74;100.00;94058.94;4988881;28;20689;-80
2022/04/10 18:43:00;;;;;;;27.60;19.27;;;;;;;3.64;100.00;94049.97;4982218;28;20893;-77
2022/04/10 18:45:29;;;;;;;35.00;22.27;;;;;;;3.69;100.00;94057.91;4988391;28;20193;-78
2022/04/10 18:47:56;;;;;;;29.33;19.53;;;;;;;3.69;100.00;94068.19;4987939;28;20240;-79
2022/04/10 18:50:23;;;;;;;28.17;19.10;;;;;;;3.77;100.00;94057.75;4987830;28;20562;-76
2022/04/10 18:52:51;;;;;;;28.27;19.27;;;;;;;3.67;100.00;94067.56;4986946;28;20301;-79
2022/04/10 18:55:18;;;;;;;28.47;18.60;;;;;;;3.76;100.00;94066.44;4987977;28;20230;-77
2022/04/10 18:57:45;;;;;;;34.07;21.37;;;;;;;3.86;100.00;94066.88;4987997;28;20200;-78
2022/04/10 19:00:13;;;;;;;29.90;19.63;;;;;;;3.76;100.00;94064.66;4987164;28;20207;-77
2022/04/10 19:02:42;;;;;;;32.70;19.40;;;;;;;3.74;100.00;94064.06;4988108;28;20282;-77
2022/04/10 19:05:09;;;;;;;30.27;19.27;;;;;;;3.69;100.00;94063.84;4988726;28;20979;-78
2022/04/10 19:07:37;;;;;;;28.60;19.53;;;;;;;3.80;100.00;94062.50;4988103;28;20871;-77
2022/04/10 19:10:04;;;;;;;29.97;19.97;;;;;;;3.97;100.00;94067.13;4987999;28;20228;-78
2022/04/10 19:12:31;;;;;;;27.33;19.00;;;;;;;4.09;100.00;94059.66;4989472;28;20212;-80
2022/04/10 19:15:00;;;;;;;27.30;18.70;;;;;;;4.01;100.00;94062.41;4988308;28;20248;-79
2022/04/10 19:17:27;;;;;;;31.53;20.43;;;;;;;3.96;100.00;94062.16;4989383;28;20197;-78
2022/04/10 19:19:56;;;;;;;34.20;21.33;;;;;;;3.98;100.00;94063.56;4989378;28;20196;-77
2022/04/10 19:22:23;;;;;;;31.10;18.87;;;;;;;4.03;100.00;94068.13;4987861;28;20606;-78
2022/04/10 19:24:49;;;;;;;26.90;17.57;;;;;;;3.96;100.00;94057.81;4988027;28;20221;-78
2022/04/10 19:27:21;;;;;;;29.33;19.30;;;;;;;3.99;100.00;94062.59;4987126;28;20205;-76
2022/04/10 19:29:51;;;;;;;27.83;18.23;;;;;;;3.95;100.00;94068.31;4979669;28;20291;-76
2022/04/10 19:32:18;;;;;;;29.43;19.40;;;;;;;3.99;100.00;94059.22;4986230;28;20204;-78
2022/04/10 19:34:45;;;;;;;31.27;19.40;;;;;;;4.05;100.00;94061.03;4986071;28;20216;-77
2022/04/10 19:37:13;;;;;;;27.10;18.20;;;;;;;4.10;100.00;94066.38;4987234;28;20235;-78
2022/04/10 19:39:40;;;;;;;27.90;19.03;;;;;;;4.20;100.00;94073.72;4987054;28;20223;-77
2022/04/10 19:42:07;;;;;;;28.37;18.40;;;;;;;4.19;100.00;94061.84;4987324;28;20212;-77